« '13航空祭inKOMATSU【展示編】 小松飛行場 2013/10/5 sat | トップページ | 台風通過 富山空港 2013/10/9 wed »

2013/10/09

'13航空祭inKOMATSU【帰投編】 小松飛行場 2013/10/5 sat

展示編からつづき

雨は降らずブルーの展示飛行も無事終わり、それぞれに撤収作業が始まった。基地の方には申し訳ないが、列線のロープが下がるまで、ジリジリ帰りの機体を楽しみます。

RJNK 050500Z 02005KT 9999 FEW070 SCT100 BKN120 24/17 Q1021

20131005_rjnk_300m9205

うめぼし・・・ 

20131005_rjnk_301m9205

20131005_rjnk_302m9205

9205 U-36A VC-91 Q05

20131005_rjnk_303f078431

20131005_rjnk_304f078431

07-8431 F-4EJk ATDW M46

20131005_rjnk_305jg43109

JG43109 UH-60JA  H09

20131005_rjnk_306r476901

47-6901 RF-4E 501SQ Q01

20131005_rjnk_307c753252

75-3252 U-4 402SQ C252

20131005_rjnk_308f658534

63-8534 F-2A 3SQ G11

20131005_rjnk_309bi

ブルー周辺でも動きがあるので、今日中に帰投か

20131005_rjnk_310c351071

35-1071 C-130H 401SQ C71

20131005_rjnk_311h274488

27-4488 CH-47J(LR) IRUMA-HT C88

20131005_rjnk_312c351071

35-1071 C-130H 401SQ C71

20131005_rjnk_313bi

もう、格納庫裏まで列線は後退させられ、ブルーの列線は見えないところで、お見送りとなった。

20131005_rjnk_314bi1

#5,#2 46-5730 / 46-5725 T-4 11SQ BI1,2

20131005_rjnk_315m5075

5075 P-3C VP-3 SE75

RJNK 050700Z 06006KT 9999 FEW080 BKN100 BKN160 26/14 Q1021

20131005_rjnk_316bi3

#3,#4 46-5729 / 26-5805 T-4 11SQ BI3,4

20131005_rjnk_317bi

せっかく雲引いてくれたけど、ガー、格納庫の陰

20131005_rjnk_318c781023

78-1023 C-1 402SQ C23

B.I.お出迎えのC1

20131005_rjnk_319bi5

#7 46-5728 T-4 11SQ BI5

20131005_rjnk_320bi6

#1 46-5731 T-4 11SQ BI6

調子が悪く居残りとなったのは 66-5745

ちなみに、翌日6日の9時過ぎに無事松島へ旅立ちました。

民航編へつづく・・・

|

« '13航空祭inKOMATSU【展示編】 小松飛行場 2013/10/5 sat | トップページ | 台風通過 富山空港 2013/10/9 wed »

小松飛行場」カテゴリの記事

BI」カテゴリの記事

コメント

コメントを書く



(ウェブ上には掲載しません)


コメントは記事投稿者が公開するまで表示されません。



トラックバック


この記事へのトラックバック一覧です: '13航空祭inKOMATSU【帰投編】 小松飛行場 2013/10/5 sat:

« '13航空祭inKOMATSU【展示編】 小松飛行場 2013/10/5 sat | トップページ | 台風通過 富山空港 2013/10/9 wed »